createdAt,value
2024-02-05T00:00:34.255Z,535.00
2024-02-05T00:01:34.301Z,537.00
2024-02-05T00:02:34.315Z,537.00
2024-02-05T00:03:34.279Z,538.00
2024-02-05T00:04:34.354Z,536.00
2024-02-05T00:05:34.301Z,536.00
2024-02-05T00:06:34.345Z,539.00
2024-02-05T00:07:34.510Z,538.00
2024-02-05T00:08:34.393Z,539.00
2024-02-05T00:09:34.397Z,537.00
2024-02-05T00:10:34.410Z,540.00
2024-02-05T00:11:34.492Z,541.00
2024-02-05T00:12:34.579Z,545.00
2024-02-05T00:13:34.489Z,545.00
2024-02-05T00:14:34.502Z,544.00
2024-02-05T00:15:34.588Z,542.00
2024-02-05T00:16:34.573Z,540.00
2024-02-05T00:17:34.674Z,538.00
2024-02-05T00:18:34.669Z,540.00
2024-02-05T00:19:34.653Z,539.00
2024-02-05T00:20:34.595Z,542.00
2024-02-05T00:21:34.665Z,542.00
2024-02-05T00:22:34.664Z,540.00
2024-02-05T00:23:34.662Z,539.00
2024-02-05T00:24:34.735Z,535.00
2024-02-05T00:25:34.700Z,534.00
2024-02-05T00:26:34.672Z,535.00
2024-02-05T00:27:34.753Z,533.00
2024-02-05T00:28:34.712Z,533.00
2024-02-05T00:29:34.705Z,535.00
2024-02-05T00:30:34.800Z,534.00
2024-02-05T00:31:34.715Z,537.00
2024-02-05T00:32:34.743Z,537.00
2024-02-05T00:33:34.856Z,538.00
2024-02-05T00:34:34.803Z,541.00
2024-02-05T00:35:34.750Z,542.00
2024-02-05T00:36:34.873Z,543.00
2024-02-05T00:37:34.807Z,546.00
2024-02-05T00:38:34.822Z,548.00
2024-02-05T00:39:34.963Z,549.00
2024-02-05T00:40:34.943Z,547.00
2024-02-05T00:41:34.985Z,548.00
2024-02-05T00:42:35.162Z,549.00
2024-02-05T00:43:35.090Z,551.00
2024-02-05T00:44:35.162Z,548.00
2024-02-05T00:45:35.306Z,545.00
2024-02-05T00:46:35.325Z,543.00
2024-02-05T00:47:35.495Z,542.00
2024-02-05T00:48:35.578Z,543.00
2024-02-05T00:49:35.666Z,542.00
2024-02-05T00:50:35.601Z,543.00
2024-02-05T00:51:35.779Z,544.00
2024-02-05T00:52:35.765Z,543.00
2024-02-05T00:53:35.856Z,542.00
2024-02-05T00:54:35.917Z,541.00
2024-02-05T00:55:35.940Z,540.00
2024-02-05T00:56:36.009Z,539.00
2024-02-05T00:57:36.111Z,537.00
2024-02-05T00:58:36.177Z,538.00
2024-02-05T00:59:36.199Z,539.00
2024-02-05T01:00:36.306Z,538.00
2024-02-05T01:01:36.462Z,541.00
2024-02-05T01:02:36.439Z,542.00
2024-02-05T01:03:36.491Z,541.00
2024-02-05T01:04:36.720Z,541.00
2024-02-05T01:05:36.755Z,539.00
2024-02-05T01:06:36.798Z,536.00
2024-02-05T01:07:36.784Z,532.00
2024-02-05T01:08:36.767Z,536.00
2024-02-05T01:09:36.904Z,537.00
2024-02-05T01:10:36.845Z,536.00
2024-02-05T01:11:36.861Z,536.00
2024-02-05T01:12:36.952Z,537.00
2024-02-05T01:13:36.972Z,537.00
2024-02-05T01:14:37.082Z,537.00
2024-02-05T01:15:37.232Z,540.00
2024-02-05T01:16:37.180Z,540.00
2024-02-05T01:17:37.284Z,536.00
2024-02-05T01:18:37.397Z,536.00
2024-02-05T01:19:37.446Z,535.00
2024-02-05T01:20:37.353Z,536.00
2024-02-05T01:21:37.447Z,536.00
2024-02-05T01:22:37.451Z,538.00
2024-02-05T01:23:37.505Z,541.00
2024-02-05T01:24:37.581Z,541.00
2024-02-05T01:25:37.554Z,540.00
2024-02-05T01:26:37.636Z,541.00
2024-02-05T01:27:37.736Z,543.00
2024-02-05T01:28:37.711Z,540.00
2024-02-05T01:29:37.794Z,541.00
2024-02-05T01:30:37.861Z,543.00
2024-02-05T01:31:37.870Z,545.00
2024-02-05T01:32:37.896Z,544.00
2024-02-05T01:33:38.061Z,540.00
2024-02-05T01:34:38.070Z,537.00
2024-02-05T01:35:38.043Z,537.00
2024-02-05T01:36:38.117Z,536.00
2024-02-05T01:37:38.209Z,535.00
2024-02-05T01:38:38.151Z,535.00
2024-02-05T01:39:38.234Z,535.00
2024-02-05T01:40:38.267Z,533.00
2024-02-05T01:41:38.284Z,533.00
2024-02-05T01:42:38.385Z,532.00
2024-02-05T01:43:38.362Z,533.00
2024-02-05T01:44:38.398Z,534.00
2024-02-05T01:45:38.513Z,535.00
2024-02-05T01:46:38.526Z,535.00
2024-02-05T01:47:38.608Z,538.00
2024-02-05T01:48:38.743Z,538.00
2024-02-05T01:49:38.731Z,537.00
2024-02-05T01:50:38.668Z,536.00
2024-02-05T01:51:38.756Z,536.00
2024-02-05T01:52:38.802Z,534.00
2024-02-05T01:53:38.848Z,537.00
2024-02-05T01:54:38.885Z,539.00
2024-02-05T01:55:38.913Z,539.00
2024-02-05T01:56:38.928Z,541.00
2024-02-05T01:57:39.057Z,546.00
2024-02-05T01:58:39.014Z,548.00
2024-02-05T01:59:39.099Z,547.00
2024-02-05T02:00:39.176Z,544.00
2024-02-05T02:01:39.184Z,544.00
2024-02-05T02:02:39.373Z,541.00
2024-02-05T02:03:39.335Z,540.00
2024-02-05T02:04:39.408Z,539.00
2024-02-05T02:05:39.326Z,539.00
2024-02-05T02:06:39.370Z,540.00
2024-02-05T02:07:39.415Z,538.00
2024-02-05T02:08:39.553Z,538.00
2024-02-05T02:09:39.555Z,540.00
2024-02-05T02:10:39.605Z,541.00
2024-02-05T02:11:39.509Z,539.00
2024-02-05T02:12:39.546Z,536.00
2024-02-05T02:13:39.552Z,537.00
2024-02-05T02:14:39.667Z,539.00
2024-02-05T02:15:39.669Z,540.00
2024-02-05T02:16:39.646Z,539.00
2024-02-05T02:17:39.714Z,543.00
2024-02-05T02:18:39.919Z,546.00
2024-02-05T02:19:39.815Z,547.00
2024-02-05T02:20:39.796Z,546.00
2024-02-05T02:21:39.844Z,544.00
2024-02-05T02:22:39.857Z,542.00
2024-02-05T02:23:39.893Z,544.00
2024-02-05T02:24:39.886Z,544.00
2024-02-05T02:25:39.903Z,542.00
2024-02-05T02:26:39.961Z,543.00
2024-02-05T02:27:39.995Z,543.00
2024-02-05T02:28:40.022Z,543.00
2024-02-05T02:29:39.988Z,540.00
2024-02-05T02:30:40.079Z,540.00
2024-02-05T02:31:40.107Z,539.00
2024-02-05T02:32:40.095Z,538.00
2024-02-05T02:33:40.162Z,539.00
2024-02-05T02:34:40.180Z,538.00
2024-02-05T02:35:40.134Z,539.00
2024-02-05T02:36:40.196Z,538.00
2024-02-05T02:37:40.235Z,538.00
2024-02-05T02:38:40.192Z,540.00
2024-02-05T02:39:40.211Z,542.00
2024-02-05T02:40:40.230Z,543.00
2024-02-05T02:41:40.269Z,544.00
2024-02-05T02:42:40.317Z,542.00
2024-02-05T02:43:40.309Z,542.00
2024-02-05T02:44:40.321Z,545.00
2024-02-05T02:45:40.414Z,549.00
2024-02-05T02:46:40.423Z,552.00
2024-02-05T02:47:40.484Z,553.00
2024-02-05T02:48:40.495Z,551.00
2024-02-05T02:49:40.462Z,552.00
2024-02-05T02:50:40.482Z,550.00
2024-02-05T02:51:40.519Z,548.00
2024-02-05T02:52:40.545Z,547.00
2024-02-05T02:53:40.550Z,544.00
2024-02-05T02:54:40.634Z,542.00
2024-02-05T02:55:40.634Z,541.00
2024-02-05T02:56:40.665Z,543.00
2024-02-05T02:57:40.664Z,544.00
2024-02-05T02:58:40.708Z,542.00
2024-02-05T02:59:40.672Z,542.00
2024-02-05T03:00:40.805Z,541.00
2024-02-05T03:01:40.846Z,540.00
2024-02-05T03:02:40.810Z,536.00
2024-02-05T03:03:41.001Z,533.00
2024-02-05T03:04:40.844Z,533.00
2024-02-05T03:05:40.840Z,533.00
2024-02-05T03:06:40.911Z,533.00
2024-02-05T03:07:40.865Z,535.00
2024-02-05T03:08:40.888Z,534.00
2024-02-05T03:09:41.045Z,536.00
2024-02-05T03:10:40.912Z,537.00
2024-02-05T03:11:40.986Z,538.00
2024-02-05T03:12:41.061Z,540.00
2024-02-05T03:13:40.949Z,538.00
2024-02-05T03:14:40.996Z,540.00
2024-02-05T03:15:41.042Z,543.00
2024-02-05T03:16:41.011Z,544.00
2024-02-05T03:17:41.066Z,544.00
2024-02-05T03:18:41.145Z,544.00
2024-02-05T03:19:41.155Z,544.00
2024-02-05T03:20:41.116Z,545.00
2024-02-05T03:21:41.175Z,547.00
2024-02-05T03:22:41.224Z,549.00
2024-02-05T03:23:41.199Z,551.00
2024-02-05T03:24:41.234Z,551.00
2024-02-05T03:25:41.375Z,551.00
2024-02-05T03:26:41.255Z,551.00
2024-02-05T03:27:41.357Z,549.00
2024-02-05T03:28:41.301Z,549.00
2024-02-05T03:29:41.317Z,549.00
2024-02-05T03:30:41.438Z,549.00
2024-02-05T03:31:41.435Z,547.00
2024-02-05T03:32:41.411Z,546.00
2024-02-05T03:33:41.469Z,546.00
2024-02-05T03:34:41.571Z,546.00
2024-02-05T03:35:41.445Z,547.00
2024-02-05T03:36:41.613Z,549.00
2024-02-05T03:37:41.526Z,550.00
2024-02-05T03:38:41.554Z,549.00
2024-02-05T03:39:41.572Z,547.00
2024-02-05T03:40:41.633Z,549.00
2024-02-05T03:41:41.623Z,547.00
2024-02-05T03:42:41.685Z,547.00
2024-02-05T03:43:41.659Z,546.00
2024-02-05T03:44:41.718Z,546.00
2024-02-05T03:45:41.861Z,546.00
2024-02-05T03:46:41.783Z,549.00
2024-02-05T03:47:41.865Z,550.00
2024-02-05T03:48:41.910Z,550.00
2024-02-05T03:49:41.962Z,548.00
2024-02-05T03:50:41.910Z,549.00
2024-02-05T03:51:42.018Z,550.00
2024-02-05T03:52:41.973Z,552.00
2024-02-05T03:53:42.009Z,552.00
2024-02-05T03:54:42.116Z,552.00
2024-02-05T03:55:42.097Z,550.00
2024-02-05T03:56:45.554Z,551.00
2024-02-05T03:57:42.196Z,550.00
2024-02-05T03:58:42.142Z,550.00
2024-02-05T03:59:42.109Z,551.00
2024-02-05T04:00:42.190Z,548.00
2024-02-05T04:01:42.191Z,547.00
2024-02-05T04:02:42.117Z,546.00
2024-02-05T04:03:42.232Z,546.00
2024-02-05T04:04:42.169Z,546.00
2024-02-05T04:05:42.142Z,544.00
2024-02-05T04:06:42.181Z,544.00
2024-02-05T04:07:42.157Z,540.00
2024-02-05T04:08:42.191Z,538.00
2024-02-05T04:09:42.215Z,534.00
2024-02-05T04:10:42.148Z,535.00
2024-02-05T04:11:42.145Z,536.00
2024-02-05T04:12:42.259Z,536.00
2024-02-05T04:13:42.162Z,536.00
2024-02-05T04:14:42.190Z,539.00
2024-02-05T04:15:44.404Z,540.00
2024-02-05T04:16:42.163Z,543.00
2024-02-05T04:17:42.193Z,542.00
2024-02-05T04:18:42.182Z,544.00
2024-02-05T04:19:42.261Z,545.00
2024-02-05T04:20:42.148Z,545.00
2024-02-05T04:21:42.206Z,547.00
2024-02-05T04:22:42.165Z,547.00
2024-02-05T04:23:42.194Z,544.00
2024-02-05T04:24:42.239Z,540.00
2024-02-05T04:25:42.173Z,540.00
2024-02-05T04:26:42.221Z,541.00
2024-02-05T04:27:42.202Z,542.00
2024-02-05T04:28:42.167Z,542.00
2024-02-05T04:29:42.192Z,540.00
2024-02-05T04:30:42.333Z,540.00
2024-02-05T04:31:42.187Z,540.00
2024-02-05T04:32:42.201Z,538.00
2024-02-05T04:33:42.459Z,538.00
2024-02-05T04:34:42.294Z,536.00
2024-02-05T04:35:42.196Z,540.00
2024-02-05T04:36:42.211Z,539.00
2024-02-05T04:37:42.198Z,540.00
2024-02-05T04:38:42.196Z,540.00
2024-02-05T04:39:42.188Z,542.00
2024-02-05T04:40:42.168Z,541.00
2024-02-05T04:41:42.218Z,541.00
2024-02-05T04:42:42.218Z,539.00
2024-02-05T04:43:42.205Z,537.00
2024-02-05T04:44:42.244Z,537.00
2024-02-05T04:45:42.200Z,534.00
2024-02-05T04:46:42.208Z,536.00
2024-02-05T04:47:42.225Z,535.00
2024-02-05T04:48:42.385Z,532.00
2024-02-05T04:49:49.715Z,563.00
2024-02-05T04:50:49.688Z,558.00
2024-02-05T04:51:49.705Z,555.00
2024-02-05T04:52:49.705Z,552.00
2024-02-05T04:53:49.713Z,548.00
2024-02-05T04:54:49.751Z,545.00
2024-02-05T04:55:49.737Z,545.00
2024-02-05T04:56:49.680Z,546.00
2024-02-05T04:57:49.976Z,551.00
2024-02-05T04:58:49.717Z,554.00
2024-02-05T04:59:49.705Z,555.00
2024-02-05T05:00:49.717Z,556.00
2024-02-05T05:01:49.730Z,552.00
2024-02-05T05:02:49.676Z,550.00
2024-02-05T05:03:49.783Z,552.00
2024-02-05T05:04:49.740Z,551.00
2024-02-05T05:05:49.722Z,551.00
2024-02-05T05:06:49.771Z,553.00
2024-02-05T05:07:49.837Z,553.00
2024-02-05T05:08:49.805Z,553.00
2024-02-05T05:09:49.878Z,557.00
2024-02-05T05:10:49.924Z,560.00
2024-02-05T05:11:49.999Z,558.00
2024-02-05T05:12:50.049Z,556.00
2024-02-05T05:13:50.114Z,556.00
2024-02-05T05:14:50.175Z,556.00
2024-02-05T05:15:50.288Z,556.00
2024-02-05T05:16:50.264Z,556.00
2024-02-05T05:17:50.447Z,555.00
2024-02-05T05:18:50.493Z,556.00
2024-02-05T05:19:50.517Z,559.00
2024-02-05T05:20:50.462Z,559.00
2024-02-05T05:21:50.538Z,560.00
2024-02-05T05:22:50.590Z,560.00
2024-02-05T05:23:50.650Z,562.00
2024-02-05T05:24:50.689Z,562.00
2024-02-05T05:25:50.752Z,565.00
2024-02-05T05:26:50.781Z,567.00
2024-02-05T05:27:50.930Z,565.00
2024-02-05T05:28:50.898Z,563.00
2024-02-05T05:29:50.943Z,562.00
2024-02-05T05:30:51.022Z,561.00
2024-02-05T05:31:51.019Z,564.00
2024-02-05T05:32:51.097Z,566.00
2024-02-05T05:33:51.199Z,569.00
2024-02-05T05:34:51.232Z,572.00
2024-02-05T05:35:51.231Z,572.00
2024-02-05T05:36:51.319Z,573.00
2024-02-05T05:37:51.360Z,574.00
2024-02-05T05:38:51.393Z,575.00
2024-02-05T05:39:51.456Z,578.00
2024-02-05T05:40:51.489Z,577.00
2024-02-05T05:41:51.500Z,573.00
2024-02-05T05:42:51.603Z,571.00
2024-02-05T05:43:51.656Z,568.00
2024-02-05T05:44:51.697Z,566.00
2024-02-05T05:45:51.806Z,567.00
2024-02-05T05:46:51.797Z,566.00
2024-02-05T05:47:51.885Z,566.00
2024-02-05T05:48:51.973Z,567.00
2024-02-05T05:49:52.039Z,569.00
2024-02-05T05:50:52.023Z,568.00
2024-02-05T05:51:52.067Z,569.00
2024-02-05T05:52:52.126Z,569.00
2024-02-05T05:53:52.166Z,567.00
2024-02-05T05:54:52.207Z,567.00
2024-02-05T05:55:52.245Z,566.00
2024-02-05T05:56:52.294Z,567.00
2024-02-05T05:57:53.595Z,566.00
2024-02-05T05:58:52.417Z,568.00
2024-02-05T05:59:52.448Z,570.00
2024-02-05T06:01:15.100Z,567.00
2024-02-05T06:01:52.624Z,565.00
2024-02-05T06:02:52.533Z,567.00
2024-02-05T06:03:52.541Z,565.00
2024-02-05T06:04:52.581Z,565.00
2024-02-05T06:05:52.525Z,568.00
2024-02-05T06:06:52.649Z,567.00
2024-02-05T06:07:52.563Z,566.00
2024-02-05T06:08:52.509Z,563.00
2024-02-05T06:09:52.552Z,563.00
2024-02-05T06:10:52.528Z,561.00
2024-02-05T06:11:52.542Z,563.00
2024-02-05T06:12:52.612Z,562.00
2024-02-05T06:13:52.634Z,565.00
2024-02-05T06:14:52.558Z,565.00
2024-02-05T06:15:52.518Z,564.00
2024-02-05T06:16:52.552Z,562.00
2024-02-05T06:17:52.552Z,562.00
2024-02-05T06:18:52.714Z,563.00
2024-02-05T06:19:52.624Z,562.00
2024-02-05T06:20:52.648Z,562.00
2024-02-05T06:21:52.838Z,563.00
2024-02-05T06:22:52.780Z,562.00
2024-02-05T06:23:52.780Z,563.00
2024-02-05T06:24:52.864Z,563.00
2024-02-05T06:25:52.901Z,561.00
2024-02-05T06:26:52.951Z,561.00
2024-02-05T06:27:52.990Z,561.00
2024-02-05T06:28:53.019Z,560.00
2024-02-05T06:29:53.023Z,559.00
2024-02-05T06:30:53.131Z,562.00
2024-02-05T06:31:53.188Z,562.00
2024-02-05T06:32:53.301Z,563.00
2024-02-05T06:33:53.393Z,566.00
2024-02-05T06:34:53.376Z,563.00
2024-02-05T06:35:53.409Z,569.00
2024-02-05T06:36:53.574Z,587.00
2024-02-05T06:37:53.954Z,744.00
2024-02-05T06:38:53.907Z,660.00
2024-02-05T06:39:53.573Z,658.00
2024-02-05T06:40:54.367Z,710.00
2024-02-05T06:41:53.630Z,791.00
2024-02-05T06:42:53.733Z,958.00
2024-02-05T06:43:53.885Z,977.00
2024-02-05T06:44:53.805Z,971.00
2024-02-05T06:46:17.554Z,980.00
2024-02-05T06:46:55.486Z,997.00
2024-02-05T06:47:54.061Z,1137.00
2024-02-05T06:48:55.197Z,1104.00
2024-02-05T06:49:54.010Z,1097.00
2024-02-05T06:50:53.993Z,1124.00
2024-02-05T06:51:53.933Z,1170.00
2024-02-05T06:52:53.840Z,1334.00
2024-02-05T06:53:53.952Z,1208.00
2024-02-05T06:54:53.955Z,1282.00
2024-02-05T06:55:53.908Z,1362.00
2024-02-05T06:56:53.791Z,1464.00
2024-02-05T06:57:53.926Z,1328.00
2024-02-05T06:58:53.934Z,1303.00
2024-02-05T06:59:53.817Z,1310.00
2024-02-05T07:00:53.868Z,1270.00
2024-02-05T07:01:54.000Z,1291.00
2024-02-05T07:02:53.822Z,1292.00
2024-02-05T07:03:54.115Z,1364.00
2024-02-05T07:04:54.161Z,1367.00
2024-02-05T07:05:53.845Z,1358.00
2024-02-05T07:06:53.975Z,1369.00
2024-02-05T07:07:53.956Z,1487.00
2024-02-05T07:08:54.194Z,1484.00
2024-02-05T07:09:53.949Z,1130.00
2024-02-05T07:10:54.243Z,1061.00
2024-02-05T07:11:53.980Z,997.00
2024-02-05T07:12:54.180Z,1087.00
2024-02-05T07:13:53.969Z,961.00
2024-02-05T07:14:54.210Z,937.00
2024-02-05T07:15:54.253Z,954.00
2024-02-05T07:16:54.095Z,1426.00
2024-02-05T07:17:54.070Z,1300.00
2024-02-05T07:18:54.029Z,1266.00
2024-02-05T07:19:54.071Z,1249.00
2024-02-05T07:20:54.012Z,1251.00
2024-02-05T07:21:54.281Z,1305.00
2024-02-05T07:22:54.054Z,1340.00
2024-02-05T07:23:54.077Z,1443.00
2024-02-05T07:24:54.152Z,1395.00
2024-02-05T07:25:54.218Z,1388.00
2024-02-05T07:26:54.265Z,1395.00
2024-02-05T07:27:54.354Z,1410.00
2024-02-05T07:28:54.419Z,1448.00
2024-02-05T07:29:54.564Z,1487.00
2024-02-05T07:30:54.541Z,1493.00
2024-02-05T07:31:55.360Z,1503.00
2024-02-05T07:32:54.735Z,1492.00
2024-02-05T07:33:54.759Z,1509.00
2024-02-05T07:34:54.853Z,1543.00
2024-02-05T07:35:55.382Z,1542.00
2024-02-05T07:36:54.943Z,1558.00
2024-02-05T07:37:55.320Z,1489.00
2024-02-05T07:38:55.786Z,1502.00
2024-02-05T07:39:55.075Z,1401.00
2024-02-05T07:40:55.166Z,1463.00
2024-02-05T07:41:55.204Z,1360.00
2024-02-05T07:42:55.233Z,1348.00
2024-02-05T07:43:55.373Z,1368.00
2024-02-05T07:44:55.361Z,1380.00
2024-02-05T07:45:55.431Z,1389.00
2024-02-05T07:46:55.419Z,1473.00
2024-02-05T07:47:55.491Z,1476.00
2024-02-05T07:48:55.549Z,1517.00
2024-02-05T07:49:55.603Z,1776.00
2024-02-05T07:50:55.635Z,1571.00
2024-02-05T07:51:55.475Z,1561.00
2024-02-05T07:52:55.429Z,1562.00
2024-02-05T07:53:55.916Z,1639.00
2024-02-05T07:54:55.626Z,1749.00
2024-02-05T07:55:55.433Z,1765.00
2024-02-05T07:56:55.429Z,1665.00
2024-02-05T07:57:55.491Z,1661.00
2024-02-05T07:58:55.900Z,1663.00
2024-02-05T07:59:55.444Z,1657.00
2024-02-05T08:00:55.528Z,1651.00
2024-02-05T08:01:55.564Z,1253.00
2024-02-05T08:02:55.566Z,1196.00
2024-02-05T08:03:55.779Z,1100.00
2024-02-05T08:04:55.891Z,974.00
2024-02-05T08:05:55.778Z,1077.00
2024-02-05T08:06:55.845Z,1049.00
2024-02-05T08:07:56.039Z,1099.00
2024-02-05T08:08:55.822Z,963.00
2024-02-05T08:09:56.261Z,930.00
2024-02-05T08:10:55.880Z,928.00
2024-02-05T08:11:55.875Z,1144.00
2024-02-05T08:12:55.923Z,1155.00
2024-02-05T08:13:55.891Z,1215.00
2024-02-05T08:14:55.915Z,1294.00
2024-02-05T08:15:56.077Z,1278.00
2024-02-05T08:16:55.989Z,1301.00
2024-02-05T08:17:56.100Z,1322.00
2024-02-05T08:18:56.205Z,1345.00
2024-02-05T08:19:56.271Z,1351.00
2024-02-05T08:20:56.287Z,1358.00
2024-02-05T08:21:56.382Z,1463.00
2024-02-05T08:22:56.442Z,1466.00
2024-02-05T08:23:56.656Z,1470.00
2024-02-05T08:24:56.773Z,1466.00
2024-02-05T08:25:56.893Z,1459.00
2024-02-05T08:26:56.729Z,1461.00
2024-02-05T08:27:56.693Z,1513.00
2024-02-05T08:28:56.756Z,1555.00
2024-02-05T08:29:56.771Z,1537.00
2024-02-05T08:30:56.890Z,1500.00
2024-02-05T08:31:56.893Z,1518.00
2024-02-05T08:32:57.299Z,1508.00
2024-02-05T08:33:57.513Z,1508.00
2024-02-05T08:34:57.153Z,1467.00
2024-02-05T08:35:57.118Z,1420.00
2024-02-05T08:36:57.331Z,1520.00
2024-02-05T08:37:57.357Z,1426.00
2024-02-05T08:38:57.441Z,1341.00
2024-02-05T08:39:57.401Z,1334.00
2024-02-05T08:40:57.404Z,1332.00
2024-02-05T08:41:57.471Z,1307.00
2024-02-05T08:42:57.551Z,1282.00
2024-02-05T08:43:57.579Z,1304.00
2024-02-05T08:45:00.301Z,1363.00
2024-02-05T08:45:57.632Z,1355.00
2024-02-05T08:46:57.653Z,1355.00
2024-02-05T08:47:57.775Z,1353.00
2024-02-05T08:48:57.758Z,1535.00
2024-02-05T08:49:57.873Z,1415.00
2024-02-05T08:50:57.680Z,1374.00
2024-02-05T08:51:57.689Z,1369.00
2024-02-05T08:52:57.640Z,1362.00
2024-02-05T08:53:57.624Z,1430.00
2024-02-05T08:54:57.658Z,1363.00
2024-02-05T08:55:57.664Z,1399.00
2024-02-05T08:56:57.671Z,1473.00
2024-02-05T08:57:57.671Z,1467.00
2024-02-05T08:58:57.623Z,1466.00
2024-02-05T08:59:57.625Z,1467.00
2024-02-05T09:00:57.726Z,1470.00
2024-02-05T09:01:57.815Z,1475.00
2024-02-05T09:02:57.727Z,1488.00
2024-02-05T09:03:57.727Z,1548.00
2024-02-05T09:04:57.689Z,1551.00
2024-02-05T09:05:57.787Z,1553.00
2024-02-05T09:06:57.697Z,1540.00
2024-02-05T09:07:57.693Z,1745.00
2024-02-05T09:08:57.640Z,1704.00
2024-02-05T09:09:57.703Z,1673.00
2024-02-05T09:10:57.636Z,1670.00
2024-02-05T09:12:05.476Z,1633.00
2024-02-05T09:12:58.688Z,1728.00
2024-02-05T09:13:57.668Z,1610.00
2024-02-05T09:14:57.674Z,1587.00
2024-02-05T09:15:57.725Z,1585.00
2024-02-05T09:16:57.662Z,1588.00
2024-02-05T09:17:57.680Z,1605.00
2024-02-05T09:18:58.067Z,1697.00
2024-02-05T09:19:57.782Z,1560.00
2024-02-05T09:20:57.645Z,1199.00
2024-02-05T09:21:57.774Z,1142.00
2024-02-05T09:22:57.646Z,1107.00
2024-02-05T09:23:57.672Z,1120.00
2024-02-05T09:24:57.706Z,1023.00
2024-02-05T09:25:57.750Z,1024.00
2024-02-05T09:26:57.822Z,1015.00
2024-02-05T09:27:57.976Z,950.00
2024-02-05T09:28:58.455Z,945.00
2024-02-05T09:29:58.042Z,913.00
2024-02-05T09:31:06.246Z,1065.00
2024-02-05T09:31:59.203Z,1094.00
2024-02-05T09:32:58.187Z,1113.00
2024-02-05T09:33:58.480Z,1264.00
2024-02-05T09:34:58.171Z,1134.00
2024-02-05T09:35:58.127Z,1027.00
2024-02-05T09:36:58.144Z,995.00
2024-02-05T09:37:58.134Z,813.00
2024-02-05T09:38:58.924Z,734.00
2024-02-05T09:39:58.172Z,751.00
2024-02-05T09:40:58.105Z,745.00
2024-02-05T09:41:58.148Z,726.00
2024-02-05T09:42:58.193Z,712.00
2024-02-05T09:43:58.131Z,704.00
2024-02-05T09:44:58.466Z,668.00
2024-02-05T09:45:58.302Z,649.00
2024-02-05T09:46:58.283Z,644.00
2024-02-05T09:47:58.461Z,643.00
2024-02-05T09:48:58.502Z,636.00
2024-02-05T09:49:58.598Z,635.00
2024-02-05T09:51:00.183Z,632.00
2024-02-05T09:51:58.609Z,675.00
2024-02-05T09:52:58.653Z,801.00
2024-02-05T09:54:10.122Z,957.00
2024-02-05T09:55:00.079Z,1251.00
2024-02-05T09:55:58.892Z,1070.00
2024-02-05T09:56:58.727Z,1132.00
2024-02-05T09:57:58.780Z,947.00
2024-02-05T09:59:00.046Z,883.00
2024-02-05T09:59:58.864Z,1169.00
2024-02-05T10:00:58.838Z,1321.00
2024-02-05T10:01:58.782Z,865.00
2024-02-05T10:02:58.829Z,924.00
2024-02-05T10:03:58.774Z,897.00
2024-02-05T10:04:58.821Z,930.00
2024-02-05T10:05:59.188Z,915.00
2024-02-05T10:06:58.819Z,899.00
2024-02-05T10:07:58.775Z,809.00
2024-02-05T10:08:58.779Z,823.00
2024-02-05T10:09:58.785Z,820.00
2024-02-05T10:10:58.744Z,832.00
2024-02-05T10:11:58.775Z,842.00
2024-02-05T10:12:58.751Z,860.00
2024-02-05T10:13:58.745Z,819.00
2024-02-05T10:14:58.980Z,1048.00
2024-02-05T10:15:58.796Z,1009.00
2024-02-05T10:17:01.089Z,1106.00
2024-02-05T10:17:59.034Z,1107.00
2024-02-05T10:18:58.840Z,1128.00
2024-02-05T10:19:58.853Z,1197.00
2024-02-05T10:20:59.019Z,1247.00
2024-02-05T10:21:58.894Z,1242.00
2024-02-05T10:22:58.773Z,1396.00
2024-02-05T10:23:58.775Z,1470.00
2024-02-05T10:24:59.222Z,1404.00
2024-02-05T10:25:58.776Z,1388.00
2024-02-05T10:26:58.855Z,1514.00
2024-02-05T10:27:58.828Z,1509.00
2024-02-05T10:28:58.774Z,1600.00
2024-02-05T10:30:01.130Z,1665.00
2024-02-05T10:30:59.005Z,1492.00
2024-02-05T10:31:58.822Z,1472.00
2024-02-05T10:32:58.906Z,1476.00
2024-02-05T10:33:59.125Z,1781.00
2024-02-05T10:34:58.802Z,1626.00
2024-02-05T10:36:01.944Z,1614.00
2024-02-05T10:36:58.776Z,1590.00
2024-02-05T10:37:58.805Z,1593.00
2024-02-05T10:38:58.809Z,1758.00
2024-02-05T10:39:58.997Z,1791.00
2024-02-05T10:40:58.953Z,1737.00
2024-02-05T10:41:58.795Z,1705.00
2024-02-05T10:42:58.840Z,1702.00
2024-02-05T10:43:58.785Z,1712.00
2024-02-05T10:44:58.789Z,1521.00
2024-02-05T10:45:58.868Z,1385.00
2024-02-05T10:46:58.797Z,1471.00
2024-02-05T10:47:58.920Z,1305.00
2024-02-05T10:48:58.879Z,1315.00
2024-02-05T10:49:58.911Z,1274.00
2024-02-05T10:50:58.862Z,1234.00
2024-02-05T10:51:59.146Z,998.00
2024-02-05T10:52:58.793Z,905.00
2024-02-05T10:53:58.823Z,985.00
2024-02-05T10:54:58.874Z,998.00
2024-02-05T10:55:58.859Z,990.00
2024-02-05T10:56:58.841Z,900.00
2024-02-05T10:57:58.889Z,888.00
2024-02-05T10:59:21.657Z,873.00
2024-02-05T10:59:58.876Z,926.00
2024-02-05T11:00:58.955Z,966.00
2024-02-05T11:01:59.055Z,809.00
2024-02-05T11:02:58.887Z,802.00
2024-02-05T11:03:58.896Z,786.00
2024-02-05T11:04:59.116Z,788.00
2024-02-05T11:05:59.219Z,782.00
2024-02-05T11:06:58.941Z,772.00
2024-02-05T11:07:58.966Z,764.00
2024-02-05T11:08:58.900Z,758.00
2024-02-05T11:09:58.906Z,752.00
2024-02-05T11:10:59.007Z,751.00
2024-02-05T11:11:58.891Z,739.00
2024-02-05T11:12:59.013Z,734.00
2024-02-05T11:13:58.891Z,742.00
2024-02-05T11:14:58.915Z,745.00
2024-02-05T11:16:03.075Z,910.00
2024-02-05T11:16:58.940Z,1394.00
2024-02-05T11:17:58.959Z,1282.00
2024-02-05T11:18:59.132Z,1015.00
2024-02-05T11:19:59.160Z,1044.00
2024-02-05T11:20:58.950Z,1044.00
2024-02-05T11:22:01.546Z,1216.00
2024-02-05T11:22:58.988Z,1322.00
2024-02-05T11:23:58.938Z,1092.00
2024-02-05T11:24:59.014Z,1089.00
2024-02-05T11:25:58.949Z,1168.00
2024-02-05T11:26:58.992Z,1276.00
2024-02-05T11:28:01.241Z,1272.00
2024-02-05T11:28:59.009Z,1608.00
2024-02-05T11:29:58.963Z,1865.00
2024-02-05T11:30:59.035Z,1592.00
2024-02-05T11:31:58.963Z,1786.00
2024-02-05T11:32:59.051Z,1971.00
2024-02-05T11:34:00.794Z,1891.00
2024-02-05T11:34:59.211Z,1683.00
2024-02-05T11:35:59.526Z,1277.00
2024-02-05T11:36:59.122Z,1485.00
2024-02-05T11:37:59.560Z,1356.00
2024-02-05T11:38:59.191Z,1181.00
2024-02-05T11:39:59.224Z,1223.00
2024-02-05T11:40:59.515Z,1227.00
2024-02-05T11:41:59.306Z,1187.00
2024-02-05T11:42:59.299Z,1210.00
2024-02-05T11:43:59.291Z,1271.00
2024-02-05T11:44:59.344Z,1317.00
2024-02-05T11:45:59.563Z,1312.00
2024-02-05T11:46:59.397Z,1248.00
2024-02-05T11:47:59.444Z,1237.00
2024-02-05T11:48:59.520Z,1237.00
2024-02-05T11:49:59.617Z,1242.00
2024-02-05T11:50:59.574Z,1247.00
2024-02-05T11:51:59.549Z,1264.00
2024-02-05T11:52:59.595Z,1297.00
2024-02-05T11:53:59.614Z,1306.00
2024-02-05T11:54:59.711Z,1313.00
2024-02-05T11:55:59.743Z,1318.00
2024-02-05T11:56:59.720Z,1322.00
2024-02-05T11:57:59.804Z,1325.00
2024-02-05T11:58:59.789Z,1333.00
2024-02-05T11:59:59.848Z,1370.00
2024-02-05T12:01:00.161Z,1390.00
2024-02-05T12:01:59.988Z,1390.00
2024-02-05T12:02:59.905Z,1550.00
2024-02-05T12:03:59.972Z,1504.00
2024-02-05T12:04:59.979Z,1452.00
2024-02-05T12:06:00.054Z,1435.00
2024-02-05T12:07:00.394Z,1427.00
2024-02-05T12:08:00.161Z,1434.00
2024-02-05T12:09:00.084Z,1440.00
2024-02-05T12:10:00.201Z,1514.00
2024-02-05T12:11:00.769Z,1582.00
2024-02-05T12:12:00.198Z,1552.00
2024-02-05T12:13:00.239Z,1458.00
2024-02-05T12:14:00.787Z,1456.00
2024-02-05T12:15:00.267Z,1468.00
2024-02-05T12:16:00.850Z,1482.00
2024-02-05T12:17:00.309Z,1498.00
2024-02-05T12:18:00.353Z,1502.00
2024-02-05T12:19:11.372Z,1522.00
2024-02-05T12:20:01.497Z,1563.00
2024-02-05T12:21:00.580Z,1585.00